Terminal Aerodrome Forecast
Issued by NWS

Home | Current Version | Previous Version | Graphics & Text | Print | Product List | Glossary On
Versions: 1 2 3 4 5 6 7 8 9 10 11 12 13 14 15 16 17 18 19 20 21 22 23 24 25 26 27 28 29 30 31 32 33 34
705
FTUS43 KDVN 011438 AAB
TAFCID
TAF AMD
KCID 011438Z 0115/0212 05011KT 6SM BR OVC006
      TEMPO 0117/0121 4SM -SHRA BR
     FM012200 01010KT 6SM BR VCSH OVC007
     FM020200 36008KT P6SM OVC017
     FM021000 36008KT 6SM BR SCT030=

USA.gov is the U.S. government's official web portal to all federal, state and local government web resources and services.